sensor_id;sensor_type;location;lat;lon;timestamp;P1;durP1;ratioP1;P2;durP2;ratioP2
13279;SDS011;6708;49.814;8.652;2023-04-25T00:01:16;2.57;;;2.47;;
13279;SDS011;6708;49.814;8.652;2023-04-25T00:03:45;2.30;;;2.20;;
13279;SDS011;6708;49.814;8.652;2023-04-25T00:06:13;2.70;;;2.60;;
13279;SDS011;6708;49.814;8.652;2023-04-25T00:08:45;2.63;;;2.53;;
13279;SDS011;6708;49.814;8.652;2023-04-25T00:11:13;2.90;;;2.70;;
13279;SDS011;6708;49.814;8.652;2023-04-25T00:13:42;2.63;;;2.43;;
13279;SDS011;6708;49.814;8.652;2023-04-25T00:16:11;2.90;;;2.70;;
13279;SDS011;6708;49.814;8.652;2023-04-25T00:18:41;2.80;;;2.70;;
13279;SDS011;6708;49.814;8.652;2023-04-25T00:21:11;2.97;;;2.87;;
13279;SDS011;6708;49.814;8.652;2023-04-25T00:23:40;2.80;;;2.70;;
13279;SDS011;6708;49.814;8.652;2023-04-25T00:26:11;3.00;;;2.70;;
13279;SDS011;6708;49.814;8.652;2023-04-25T00:28:39;3.40;;;3.20;;
13279;SDS011;6708;49.814;8.652;2023-04-25T00:31:08;3.57;;;3.37;;
13279;SDS011;6708;49.814;8.652;2023-04-25T00:33:36;3.63;;;3.43;;
13279;SDS011;6708;49.814;8.652;2023-04-25T00:36:05;3.83;;;3.53;;
13279;SDS011;6708;49.814;8.652;2023-04-25T00:38:34;3.60;;;3.40;;
13279;SDS011;6708;49.814;8.652;2023-04-25T00:41:04;3.40;;;3.20;;
13279;SDS011;6708;49.814;8.652;2023-04-25T00:43:35;4.10;;;3.90;;
13279;SDS011;6708;49.814;8.652;2023-04-25T00:46:04;3.67;;;3.53;;
13279;SDS011;6708;49.814;8.652;2023-04-25T00:48:33;4.33;;;3.93;;
13279;SDS011;6708;49.814;8.652;2023-04-25T00:51:01;4.00;;;3.70;;
13279;SDS011;6708;49.814;8.652;2023-04-25T00:53:29;3.63;;;3.53;;
13279;SDS011;6708;49.814;8.652;2023-04-25T00:55:58;3.93;;;3.73;;
13279;SDS011;6708;49.814;8.652;2023-04-25T00:58:27;3.53;;;3.40;;
13279;SDS011;6708;49.814;8.652;2023-04-25T01:00:58;3.43;;;3.23;;
13279;SDS011;6708;49.814;8.652;2023-04-25T01:03:26;3.80;;;3.60;;
13279;SDS011;6708;49.814;8.652;2023-04-25T01:05:56;4.10;;;3.90;;
13279;SDS011;6708;49.814;8.652;2023-04-25T01:08:24;3.27;;;3.17;;
13279;SDS011;6708;49.814;8.652;2023-04-25T01:10:53;3.40;;;3.20;;
13279;SDS011;6708;49.814;8.652;2023-04-25T01:13:21;3.97;;;3.60;;
13279;SDS011;6708;49.814;8.652;2023-04-25T01:15:49;3.43;;;3.30;;
13279;SDS011;6708;49.814;8.652;2023-04-25T01:18:21;3.40;;;3.20;;
13279;SDS011;6708;49.814;8.652;2023-04-25T01:20:50;3.00;;;2.90;;
13279;SDS011;6708;49.814;8.652;2023-04-25T01:23:23;3.10;;;3.00;;
13279;SDS011;6708;49.814;8.652;2023-04-25T01:25:51;3.40;;;3.20;;
13279;SDS011;6708;49.814;8.652;2023-04-25T01:28:20;3.40;;;3.20;;
13279;SDS011;6708;49.814;8.652;2023-04-25T01:30:49;3.70;;;3.50;;
13279;SDS011;6708;49.814;8.652;2023-04-25T01:33:17;3.90;;;3.70;;
13279;SDS011;6708;49.814;8.652;2023-04-25T01:35:47;3.30;;;3.20;;
13279;SDS011;6708;49.814;8.652;2023-04-25T01:38:18;3.23;;;3.13;;
13279;SDS011;6708;49.814;8.652;2023-04-25T01:40:50;3.37;;;3.27;;
13279;SDS011;6708;49.814;8.652;2023-04-25T01:43:20;3.40;;;3.20;;
13279;SDS011;6708;49.814;8.652;2023-04-25T01:45:49;3.13;;;2.93;;
13279;SDS011;6708;49.814;8.652;2023-04-25T01:48:18;3.47;;;3.37;;
13279;SDS011;6708;49.814;8.652;2023-04-25T01:50:46;3.47;;;3.27;;
13279;SDS011;6708;49.814;8.652;2023-04-25T01:53:15;3.50;;;3.37;;
13279;SDS011;6708;49.814;8.652;2023-04-25T01:55:44;4.03;;;3.83;;
13279;SDS011;6708;49.814;8.652;2023-04-25T01:58:18;3.47;;;3.27;;
13279;SDS011;6708;49.814;8.652;2023-04-25T02:01:07;3.43;;;3.13;;
13279;SDS011;6708;49.814;8.652;2023-04-25T02:03:42;3.17;;;3.07;;
13279;SDS011;6708;49.814;8.652;2023-04-25T02:06:22;3.50;;;3.30;;
13279;SDS011;6708;49.814;8.652;2023-04-25T02:08:52;3.10;;;3.00;;
13279;SDS011;6708;49.814;8.652;2023-04-25T02:11:21;3.70;;;3.40;;
13279;SDS011;6708;49.814;8.652;2023-04-25T02:14:15;3.20;;;3.10;;
13279;SDS011;6708;49.814;8.652;2023-04-25T02:17:03;4.73;;;3.70;;
13279;SDS011;6708;49.814;8.652;2023-04-25T02:19:32;3.90;;;3.70;;
13279;SDS011;6708;49.814;8.652;2023-04-25T02:22:00;4.23;;;3.97;;
13279;SDS011;6708;49.814;8.652;2023-04-25T02:24:29;4.10;;;3.87;;
13279;SDS011;6708;49.814;8.652;2023-04-25T02:26:58;3.93;;;3.73;;
13279;SDS011;6708;49.814;8.652;2023-04-25T02:29:29;4.17;;;3.97;;
13279;SDS011;6708;49.814;8.652;2023-04-25T02:31:58;4.17;;;3.97;;
13279;SDS011;6708;49.814;8.652;2023-04-25T02:34:26;4.30;;;4.10;;
13279;SDS011;6708;49.814;8.652;2023-04-25T02:36:55;4.20;;;4.00;;
13279;SDS011;6708;49.814;8.652;2023-04-25T02:39:23;4.37;;;4.07;;
13279;SDS011;6708;49.814;8.652;2023-04-25T02:41:52;4.63;;;4.30;;
13279;SDS011;6708;49.814;8.652;2023-04-25T02:44:20;4.13;;;3.87;;
13279;SDS011;6708;49.814;8.652;2023-04-25T02:46:51;4.20;;;4.00;;
13279;SDS011;6708;49.814;8.652;2023-04-25T02:49:22;4.90;;;4.60;;
13279;SDS011;6708;49.814;8.652;2023-04-25T02:51:51;4.93;;;4.63;;
13279;SDS011;6708;49.814;8.652;2023-04-25T02:54:19;5.20;;;4.87;;
13279;SDS011;6708;49.814;8.652;2023-04-25T02:56:48;5.30;;;4.90;;
13279;SDS011;6708;49.814;8.652;2023-04-25T02:59:22;5.30;;;4.90;;
13279;SDS011;6708;49.814;8.652;2023-04-25T03:01:53;5.30;;;4.90;;
13279;SDS011;6708;49.814;8.652;2023-04-25T03:04:22;5.27;;;4.97;;
13279;SDS011;6708;49.814;8.652;2023-04-25T03:06:51;5.97;;;5.47;;
13279;SDS011;6708;49.814;8.652;2023-04-25T03:09:21;5.10;;;4.90;;
13279;SDS011;6708;49.814;8.652;2023-04-25T03:11:50;5.20;;;4.90;;
13279;SDS011;6708;49.814;8.652;2023-04-25T03:14:19;5.10;;;4.80;;
13279;SDS011;6708;49.814;8.652;2023-04-25T03:16:47;5.37;;;4.97;;
13279;SDS011;6708;49.814;8.652;2023-04-25T03:19:18;5.27;;;4.87;;
13279;SDS011;6708;49.814;8.652;2023-04-25T03:21:47;5.10;;;4.70;;
13279;SDS011;6708;49.814;8.652;2023-04-25T03:24:16;4.80;;;4.50;;
13279;SDS011;6708;49.814;8.652;2023-04-25T03:26:44;4.90;;;4.63;;
13279;SDS011;6708;49.814;8.652;2023-04-25T03:29:13;5.03;;;4.67;;
13279;SDS011;6708;49.814;8.652;2023-04-25T03:31:42;5.40;;;5.10;;
13279;SDS011;6708;49.814;8.652;2023-04-25T03:34:11;5.60;;;5.30;;
13279;SDS011;6708;49.814;8.652;2023-04-25T03:36:43;5.97;;;5.30;;
13279;SDS011;6708;49.814;8.652;2023-04-25T03:39:12;7.50;;;5.77;;
13279;SDS011;6708;49.814;8.652;2023-04-25T03:41:45;5.93;;;5.33;;
13279;SDS011;6708;49.814;8.652;2023-04-25T03:44:15;5.90;;;5.50;;
13279;SDS011;6708;49.814;8.652;2023-04-25T03:46:44;5.60;;;5.30;;
13279;SDS011;6708;49.814;8.652;2023-04-25T03:49:13;5.60;;;5.30;;
13279;SDS011;6708;49.814;8.652;2023-04-25T03:51:57;4.87;;;4.57;;
13279;SDS011;6708;49.814;8.652;2023-04-25T03:54:26;6.23;;;5.73;;
13279;SDS011;6708;49.814;8.652;2023-04-25T03:57:03;6.30;;;5.90;;
13279;SDS011;6708;49.814;8.652;2023-04-25T03:59:34;5.83;;;5.40;;
13279;SDS011;6708;49.814;8.652;2023-04-25T04:02:03;6.20;;;5.80;;
13279;SDS011;6708;49.814;8.652;2023-04-25T04:04:34;5.80;;;5.50;;
13279;SDS011;6708;49.814;8.652;2023-04-25T04:07:05;6.53;;;6.03;;
13279;SDS011;6708;49.814;8.652;2023-04-25T04:09:38;6.53;;;6.13;;
13279;SDS011;6708;49.814;8.652;2023-04-25T04:12:12;6.50;;;6.10;;
13279;SDS011;6708;49.814;8.652;2023-04-25T04:14:41;6.10;;;5.70;;
13279;SDS011;6708;49.814;8.652;2023-04-25T04:17:09;6.90;;;6.40;;
13279;SDS011;6708;49.814;8.652;2023-04-25T04:19:38;6.20;;;5.80;;
13279;SDS011;6708;49.814;8.652;2023-04-25T04:22:16;5.97;;;5.63;;
13279;SDS011;6708;49.814;8.652;2023-04-25T04:24:45;5.70;;;5.40;;
13279;SDS011;6708;49.814;8.652;2023-04-25T04:27:20;5.97;;;5.57;;
13279;SDS011;6708;49.814;8.652;2023-04-25T04:29:59;6.80;;;6.30;;
13279;SDS011;6708;49.814;8.652;2023-04-25T04:32:37;7.17;;;6.53;;
13279;SDS011;6708;49.814;8.652;2023-04-25T04:35:06;6.20;;;5.83;;
13279;SDS011;6708;49.814;8.652;2023-04-25T04:37:40;6.53;;;6.07;;
13279;SDS011;6708;49.814;8.652;2023-04-25T04:40:10;7.00;;;6.57;;
13279;SDS011;6708;49.814;8.652;2023-04-25T04:43:12;6.83;;;6.33;;
13279;SDS011;6708;49.814;8.652;2023-04-25T04:45:54;7.60;;;7.00;;
13279;SDS011;6708;49.814;8.652;2023-04-25T04:48:32;6.60;;;6.10;;
13279;SDS011;6708;49.814;8.652;2023-04-25T04:51:19;6.53;;;5.93;;
13279;SDS011;6708;49.814;8.652;2023-04-25T04:54:03;7.23;;;6.60;;
13279;SDS011;6708;49.814;8.652;2023-04-25T04:56:53;6.27;;;5.87;;
13279;SDS011;6708;49.814;8.652;2023-04-25T04:59:21;6.27;;;5.87;;
13279;SDS011;6708;49.814;8.652;2023-04-25T05:02:12;6.50;;;6.00;;
13279;SDS011;6708;49.814;8.652;2023-04-25T05:05:00;6.23;;;5.83;;
13279;SDS011;6708;49.814;8.652;2023-04-25T05:07:47;6.87;;;6.33;;
13279;SDS011;6708;49.814;8.652;2023-04-25T05:10:47;6.40;;;6.00;;
13279;SDS011;6708;49.814;8.652;2023-04-25T05:13:47;6.80;;;6.20;;
13279;SDS011;6708;49.814;8.652;2023-04-25T05:16:41;6.60;;;6.10;;
13279;SDS011;6708;49.814;8.652;2023-04-25T05:19:29;6.17;;;5.73;;
13279;SDS011;6708;49.814;8.652;2023-04-25T05:22:16;6.30;;;5.87;;
13279;SDS011;6708;49.814;8.652;2023-04-25T05:25:13;6.70;;;6.20;;
13279;SDS011;6708;49.814;8.652;2023-04-25T05:27:50;6.87;;;6.30;;
13279;SDS011;6708;49.814;8.652;2023-04-25T05:30:38;6.20;;;5.80;;
13279;SDS011;6708;49.814;8.652;2023-04-25T05:33:14;6.13;;;5.63;;
13279;SDS011;6708;49.814;8.652;2023-04-25T05:35:43;9.17;;;5.97;;
13279;SDS011;6708;49.814;8.652;2023-04-25T05:38:13;9.53;;;6.50;;
13279;SDS011;6708;49.814;8.652;2023-04-25T05:41:08;6.97;;;6.20;;
13279;SDS011;6708;49.814;8.652;2023-04-25T05:44:02;5.60;;;5.10;;
13279;SDS011;6708;49.814;8.652;2023-04-25T05:46:37;6.77;;;5.70;;
13279;SDS011;6708;49.814;8.652;2023-04-25T05:49:28;6.33;;;5.40;;
13279;SDS011;6708;49.814;8.652;2023-04-25T05:51:57;6.30;;;5.43;;
13279;SDS011;6708;49.814;8.652;2023-04-25T05:54:45;5.80;;;5.10;;
13279;SDS011;6708;49.814;8.652;2023-04-25T05:57:21;6.10;;;4.80;;
13279;SDS011;6708;49.814;8.652;2023-04-25T05:59:53;6.97;;;5.73;;
13279;SDS011;6708;49.814;8.652;2023-04-25T06:02:38;8.03;;;5.07;;
13279;SDS011;6708;49.814;8.652;2023-04-25T06:05:08;6.43;;;5.83;;
13279;SDS011;6708;49.814;8.652;2023-04-25T06:07:37;10.57;;;5.97;;
13279;SDS011;6708;49.814;8.652;2023-04-25T06:10:06;6.47;;;5.57;;
13279;SDS011;6708;49.814;8.652;2023-04-25T06:12:36;5.97;;;5.40;;
13279;SDS011;6708;49.814;8.652;2023-04-25T06:15:08;5.53;;;5.13;;
13279;SDS011;6708;49.814;8.652;2023-04-25T06:17:37;6.77;;;5.37;;
13279;SDS011;6708;49.814;8.652;2023-04-25T06:20:06;4.93;;;4.53;;
13279;SDS011;6708;49.814;8.652;2023-04-25T06:22:36;9.10;;;4.93;;
13279;SDS011;6708;49.814;8.652;2023-04-25T06:25:05;8.17;;;5.60;;
13279;SDS011;6708;49.814;8.652;2023-04-25T06:27:34;5.20;;;4.60;;
13279;SDS011;6708;49.814;8.652;2023-04-25T06:30:03;7.27;;;5.00;;
13279;SDS011;6708;49.814;8.652;2023-04-25T06:32:36;5.10;;;4.70;;
13279;SDS011;6708;49.814;8.652;2023-04-25T06:35:05;7.47;;;4.83;;
13279;SDS011;6708;49.814;8.652;2023-04-25T06:37:36;7.83;;;5.03;;
13279;SDS011;6708;49.814;8.652;2023-04-25T06:40:05;5.57;;;5.00;;
13279;SDS011;6708;49.814;8.652;2023-04-25T06:42:34;5.37;;;4.87;;
13279;SDS011;6708;49.814;8.652;2023-04-25T06:45:22;5.50;;;4.70;;
13279;SDS011;6708;49.814;8.652;2023-04-25T06:47:55;5.37;;;4.97;;
13279;SDS011;6708;49.814;8.652;2023-04-25T06:50:23;5.70;;;4.27;;
13279;SDS011;6708;49.814;8.652;2023-04-25T06:52:52;7.90;;;4.33;;
13279;SDS011;6708;49.814;8.652;2023-04-25T06:55:21;4.30;;;4.00;;
13279;SDS011;6708;49.814;8.652;2023-04-25T06:58:07;4.87;;;4.37;;
13279;SDS011;6708;49.814;8.652;2023-04-25T07:00:58;4.30;;;3.93;;
13279;SDS011;6708;49.814;8.652;2023-04-25T07:03:29;5.17;;;3.83;;
13279;SDS011;6708;49.814;8.652;2023-04-25T07:06:02;3.80;;;3.40;;
13279;SDS011;6708;49.814;8.652;2023-04-25T07:08:31;4.67;;;3.53;;
13279;SDS011;6708;49.814;8.652;2023-04-25T07:11:00;5.60;;;4.17;;
13279;SDS011;6708;49.814;8.652;2023-04-25T07:13:31;4.30;;;3.90;;
13279;SDS011;6708;49.814;8.652;2023-04-25T07:15:59;4.83;;;3.97;;
13279;SDS011;6708;49.814;8.652;2023-04-25T07:18:32;6.90;;;4.10;;
13279;SDS011;6708;49.814;8.652;2023-04-25T07:21:01;4.40;;;4.00;;
13279;SDS011;6708;49.814;8.652;2023-04-25T07:23:32;4.87;;;3.77;;
13279;SDS011;6708;49.814;8.652;2023-04-25T07:26:07;4.10;;;3.80;;
13279;SDS011;6708;49.814;8.652;2023-04-25T07:28:41;5.57;;;4.13;;
13279;SDS011;6708;49.814;8.652;2023-04-25T07:31:09;23.97;;;21.10;;
13279;SDS011;6708;49.814;8.652;2023-04-25T07:33:48;16.27;;;11.50;;
13279;SDS011;6708;49.814;8.652;2023-04-25T07:36:16;4.07;;;3.73;;
13279;SDS011;6708;49.814;8.652;2023-04-25T07:38:46;4.00;;;3.60;;
13279;SDS011;6708;49.814;8.652;2023-04-25T07:41:15;3.67;;;3.37;;
13279;SDS011;6708;49.814;8.652;2023-04-25T07:43:43;4.13;;;3.27;;
13279;SDS011;6708;49.814;8.652;2023-04-25T07:46:12;3.63;;;3.30;;
13279;SDS011;6708;49.814;8.652;2023-04-25T07:48:44;4.93;;;3.57;;
13279;SDS011;6708;49.814;8.652;2023-04-25T07:51:12;4.40;;;4.00;;
13279;SDS011;6708;49.814;8.652;2023-04-25T07:53:41;4.17;;;3.50;;
13279;SDS011;6708;49.814;8.652;2023-04-25T07:56:12;4.00;;;3.60;;
13279;SDS011;6708;49.814;8.652;2023-04-25T07:58:43;4.27;;;3.50;;
13279;SDS011;6708;49.814;8.652;2023-04-25T08:01:14;5.50;;;3.70;;
13279;SDS011;6708;49.814;8.652;2023-04-25T08:03:53;5.30;;;3.90;;
13279;SDS011;6708;49.814;8.652;2023-04-25T08:06:28;3.87;;;3.50;;
13279;SDS011;6708;49.814;8.652;2023-04-25T08:09:06;3.60;;;3.30;;
13279;SDS011;6708;49.814;8.652;2023-04-25T08:11:37;3.80;;;3.40;;
13279;SDS011;6708;49.814;8.652;2023-04-25T08:14:08;3.47;;;3.17;;
13279;SDS011;6708;49.814;8.652;2023-04-25T08:16:38;6.20;;;3.20;;
13279;SDS011;6708;49.814;8.652;2023-04-25T08:19:10;6.27;;;3.93;;
13279;SDS011;6708;49.814;8.652;2023-04-25T08:21:38;4.67;;;3.27;;
13279;SDS011;6708;49.814;8.652;2023-04-25T08:24:11;5.13;;;3.87;;
13279;SDS011;6708;49.814;8.652;2023-04-25T08:26:40;8.13;;;3.57;;
13279;SDS011;6708;49.814;8.652;2023-04-25T08:29:13;5.30;;;3.37;;
13279;SDS011;6708;49.814;8.652;2023-04-25T08:31:42;3.47;;;2.77;;
13279;SDS011;6708;49.814;8.652;2023-04-25T08:34:14;5.30;;;3.90;;
13279;SDS011;6708;49.814;8.652;2023-04-25T08:36:47;3.37;;;3.07;;
13279;SDS011;6708;49.814;8.652;2023-04-25T08:39:28;3.83;;;3.33;;
13279;SDS011;6708;49.814;8.652;2023-04-25T08:42:18;6.00;;;3.93;;
13279;SDS011;6708;49.814;8.652;2023-04-25T08:44:46;5.97;;;3.40;;
13279;SDS011;6708;49.814;8.652;2023-04-25T08:47:15;4.40;;;4.00;;
13279;SDS011;6708;49.814;8.652;2023-04-25T08:49:53;7.33;;;3.77;;
13279;SDS011;6708;49.814;8.652;2023-04-25T08:52:22;3.73;;;3.10;;
13279;SDS011;6708;49.814;8.652;2023-04-25T08:54:52;4.20;;;3.33;;
13279;SDS011;6708;49.814;8.652;2023-04-25T08:57:21;3.20;;;2.77;;
13279;SDS011;6708;49.814;8.652;2023-04-25T08:59:50;4.63;;;2.90;;
13279;SDS011;6708;49.814;8.652;2023-04-25T09:02:21;2.97;;;2.77;;
13279;SDS011;6708;49.814;8.652;2023-04-25T09:04:53;5.57;;;3.67;;
13279;SDS011;6708;49.814;8.652;2023-04-25T09:07:22;3.97;;;3.43;;
13279;SDS011;6708;49.814;8.652;2023-04-25T09:09:51;7.63;;;3.37;;
13279;SDS011;6708;49.814;8.652;2023-04-25T09:12:21;4.67;;;3.27;;
13279;SDS011;6708;49.814;8.652;2023-04-25T09:15:01;5.73;;;2.97;;
13279;SDS011;6708;49.814;8.652;2023-04-25T09:17:45;6.97;;;3.43;;
13279;SDS011;6708;49.814;8.652;2023-04-25T09:20:16;3.93;;;2.50;;
13279;SDS011;6708;49.814;8.652;2023-04-25T09:22:45;2.53;;;2.27;;
13279;SDS011;6708;49.814;8.652;2023-04-25T09:25:14;3.63;;;2.17;;
13279;SDS011;6708;49.814;8.652;2023-04-25T09:27:49;9.50;;;2.70;;
13279;SDS011;6708;49.814;8.652;2023-04-25T09:30:29;1.80;;;1.70;;
13279;SDS011;6708;49.814;8.652;2023-04-25T09:33:33;2.50;;;2.30;;
13279;SDS011;6708;49.814;8.652;2023-04-25T09:36:08;5.03;;;2.03;;
13279;SDS011;6708;49.814;8.652;2023-04-25T09:38:55;4.23;;;2.13;;
13279;SDS011;6708;49.814;8.652;2023-04-25T09:41:33;2.00;;;1.80;;
13279;SDS011;6708;49.814;8.652;2023-04-25T09:44:06;2.03;;;1.73;;
13279;SDS011;6708;49.814;8.652;2023-04-25T09:46:36;1.97;;;1.60;;
13279;SDS011;6708;49.814;8.652;2023-04-25T09:49:16;2.13;;;1.93;;
13279;SDS011;6708;49.814;8.652;2023-04-25T09:52:03;2.47;;;2.10;;
13279;SDS011;6708;49.814;8.652;2023-04-25T09:54:40;5.40;;;2.00;;
13279;SDS011;6708;49.814;8.652;2023-04-25T09:57:13;2.30;;;2.10;;
13279;SDS011;6708;49.814;8.652;2023-04-25T09:59:43;3.83;;;2.13;;
13279;SDS011;6708;49.814;8.652;2023-04-25T10:02:13;2.83;;;2.03;;
13279;SDS011;6708;49.814;8.652;2023-04-25T10:04:44;5.23;;;2.30;;
13279;SDS011;6708;49.814;8.652;2023-04-25T10:07:26;2.57;;;2.30;;
13279;SDS011;6708;49.814;8.652;2023-04-25T10:10:00;3.23;;;2.73;;
13279;SDS011;6708;49.814;8.652;2023-04-25T10:12:29;2.23;;;2.03;;
13279;SDS011;6708;49.814;8.652;2023-04-25T10:14:59;2.17;;;1.93;;
13279;SDS011;6708;49.814;8.652;2023-04-25T10:17:27;2.90;;;2.30;;
13279;SDS011;6708;49.814;8.652;2023-04-25T10:19:56;4.43;;;2.13;;
13279;SDS011;6708;49.814;8.652;2023-04-25T10:22:29;2.97;;;2.37;;
13279;SDS011;6708;49.814;8.652;2023-04-25T10:25:00;2.17;;;2.00;;
13279;SDS011;6708;49.814;8.652;2023-04-25T10:27:30;3.20;;;2.17;;
13279;SDS011;6708;49.814;8.652;2023-04-25T10:30:02;2.63;;;2.43;;
13279;SDS011;6708;49.814;8.652;2023-04-25T10:32:34;2.13;;;1.77;;
13279;SDS011;6708;49.814;8.652;2023-04-25T10:35:12;2.73;;;2.47;;
13279;SDS011;6708;49.814;8.652;2023-04-25T10:40:30;3.43;;;2.37;;
13279;SDS011;6708;49.814;8.652;2023-04-25T10:46:00;5.20;;;2.23;;
13279;SDS011;6708;49.814;8.652;2023-04-25T10:48:30;3.33;;;2.17;;
13279;SDS011;6708;49.814;8.652;2023-04-25T10:51:09;2.37;;;2.27;;
13279;SDS011;6708;49.814;8.652;2023-04-25T10:53:40;2.90;;;2.20;;
13279;SDS011;6708;49.814;8.652;2023-04-25T10:56:09;2.77;;;2.33;;
13279;SDS011;6708;49.814;8.652;2023-04-25T10:58:42;2.77;;;2.50;;
13279;SDS011;6708;49.814;8.652;2023-04-25T11:01:11;2.57;;;2.37;;
13279;SDS011;6708;49.814;8.652;2023-04-25T11:03:40;2.93;;;2.73;;
13279;SDS011;6708;49.814;8.652;2023-04-25T11:06:16;5.40;;;3.20;;
13279;SDS011;6708;49.814;8.652;2023-04-25T11:08:53;2.70;;;2.50;;
13279;SDS011;6708;49.814;8.652;2023-04-25T11:11:21;2.73;;;2.60;;
13279;SDS011;6708;49.814;8.652;2023-04-25T11:13:50;3.43;;;2.73;;
13279;SDS011;6708;49.814;8.652;2023-04-25T11:16:18;3.67;;;3.20;;
13279;SDS011;6708;49.814;8.652;2023-04-25T11:18:46;3.97;;;3.70;;
13279;SDS011;6708;49.814;8.652;2023-04-25T11:21:15;3.50;;;3.27;;
13279;SDS011;6708;49.814;8.652;2023-04-25T11:23:44;4.53;;;3.70;;
13279;SDS011;6708;49.814;8.652;2023-04-25T11:26:16;4.37;;;2.90;;
13279;SDS011;6708;49.814;8.652;2023-04-25T11:28:44;3.80;;;3.40;;
13279;SDS011;6708;49.814;8.652;2023-04-25T11:31:13;3.93;;;3.43;;
13279;SDS011;6708;49.814;8.652;2023-04-25T11:33:41;3.07;;;2.87;;
13279;SDS011;6708;49.814;8.652;2023-04-25T11:36:10;3.40;;;3.10;;
13279;SDS011;6708;49.814;8.652;2023-04-25T11:38:39;3.97;;;3.60;;
13279;SDS011;6708;49.814;8.652;2023-04-25T11:41:07;3.87;;;3.53;;
13279;SDS011;6708;49.814;8.652;2023-04-25T11:43:39;3.27;;;3.00;;
13279;SDS011;6708;49.814;8.652;2023-04-25T11:46:07;3.57;;;3.10;;
13279;SDS011;6708;49.814;8.652;2023-04-25T11:48:36;3.47;;;3.17;;
13279;SDS011;6708;49.814;8.652;2023-04-25T11:51:06;4.10;;;3.03;;
13279;SDS011;6708;49.814;8.652;2023-04-25T11:53:34;6.27;;;3.40;;
13279;SDS011;6708;49.814;8.652;2023-04-25T11:56:08;4.10;;;3.23;;
13279;SDS011;6708;49.814;8.652;2023-04-25T12:01:30;2.67;;;2.53;;
13279;SDS011;6708;49.814;8.652;2023-04-25T12:04:09;4.13;;;3.37;;
13279;SDS011;6708;49.814;8.652;2023-04-25T12:06:39;3.07;;;2.80;;
13279;SDS011;6708;49.814;8.652;2023-04-25T12:09:08;5.80;;;3.30;;
13279;SDS011;6708;49.814;8.652;2023-04-25T12:11:41;3.87;;;3.50;;
13279;SDS011;6708;49.814;8.652;2023-04-25T12:14:20;5.03;;;3.17;;
13279;SDS011;6708;49.814;8.652;2023-04-25T12:16:49;4.57;;;3.53;;
13279;SDS011;6708;49.814;8.652;2023-04-25T12:19:18;4.23;;;3.13;;
13279;SDS011;6708;49.814;8.652;2023-04-25T12:21:48;3.50;;;2.90;;
13279;SDS011;6708;49.814;8.652;2023-04-25T12:24:17;4.37;;;3.23;;
13279;SDS011;6708;49.814;8.652;2023-04-25T12:26:51;5.80;;;3.20;;
13279;SDS011;6708;49.814;8.652;2023-04-25T12:29:23;8.93;;;3.70;;
13279;SDS011;6708;49.814;8.652;2023-04-25T12:31:52;3.97;;;3.20;;
13279;SDS011;6708;49.814;8.652;2023-04-25T12:34:21;4.23;;;3.00;;
13279;SDS011;6708;49.814;8.652;2023-04-25T12:36:52;3.87;;;3.50;;
13279;SDS011;6708;49.814;8.652;2023-04-25T12:39:22;4.90;;;3.43;;
13279;SDS011;6708;49.814;8.652;2023-04-25T12:41:51;9.13;;;3.40;;
13279;SDS011;6708;49.814;8.652;2023-04-25T12:44:22;5.13;;;3.00;;
13279;SDS011;6708;49.814;8.652;2023-04-25T12:46:51;4.33;;;2.97;;
13279;SDS011;6708;49.814;8.652;2023-04-25T12:49:19;4.20;;;2.80;;
13279;SDS011;6708;49.814;8.652;2023-04-25T12:51:48;4.80;;;3.07;;
13279;SDS011;6708;49.814;8.652;2023-04-25T12:54:16;3.97;;;2.70;;
13279;SDS011;6708;49.814;8.652;2023-04-25T12:56:45;3.13;;;2.60;;
13279;SDS011;6708;49.814;8.652;2023-04-25T12:59:15;7.37;;;2.60;;
13279;SDS011;6708;49.814;8.652;2023-04-25T13:01:47;5.00;;;2.60;;
13279;SDS011;6708;49.814;8.652;2023-04-25T13:04:16;5.73;;;2.73;;
13279;SDS011;6708;49.814;8.652;2023-04-25T13:06:46;6.73;;;2.83;;
13279;SDS011;6708;49.814;8.652;2023-04-25T13:09:14;4.07;;;2.43;;
13279;SDS011;6708;49.814;8.652;2023-04-25T13:11:43;5.97;;;2.53;;
13279;SDS011;6708;49.814;8.652;2023-04-25T13:14:11;2.70;;;2.50;;
13279;SDS011;6708;49.814;8.652;2023-04-25T13:16:40;3.00;;;2.70;;
13279;SDS011;6708;49.814;8.652;2023-04-25T13:19:11;4.80;;;2.47;;
13279;SDS011;6708;49.814;8.652;2023-04-25T13:21:40;2.67;;;2.27;;
13279;SDS011;6708;49.814;8.652;2023-04-25T13:24:08;4.87;;;2.10;;
13279;SDS011;6708;49.814;8.652;2023-04-25T13:26:36;2.73;;;2.13;;
13279;SDS011;6708;49.814;8.652;2023-04-25T13:29:05;5.20;;;2.73;;
13279;SDS011;6708;49.814;8.652;2023-04-25T13:31:34;3.57;;;2.17;;
13279;SDS011;6708;49.814;8.652;2023-04-25T13:34:02;3.03;;;2.33;;
13279;SDS011;6708;49.814;8.652;2023-04-25T13:36:33;4.30;;;2.63;;
13279;SDS011;6708;49.814;8.652;2023-04-25T13:39:02;10.03;;;2.60;;
13279;SDS011;6708;49.814;8.652;2023-04-25T13:41:31;3.13;;;2.47;;
13279;SDS011;6708;49.814;8.652;2023-04-25T13:44:00;2.63;;;2.33;;
13279;SDS011;6708;49.814;8.652;2023-04-25T13:46:28;4.33;;;2.40;;
13279;SDS011;6708;49.814;8.652;2023-04-25T13:48:57;5.10;;;2.40;;
13279;SDS011;6708;49.814;8.652;2023-04-25T13:51:26;3.67;;;2.10;;
13279;SDS011;6708;49.814;8.652;2023-04-25T13:53:58;6.73;;;2.80;;
13279;SDS011;6708;49.814;8.652;2023-04-25T13:56:26;2.77;;;2.53;;
13279;SDS011;6708;49.814;8.652;2023-04-25T13:58:55;4.07;;;2.70;;
13279;SDS011;6708;49.814;8.652;2023-04-25T14:01:23;2.37;;;2.17;;
13279;SDS011;6708;49.814;8.652;2023-04-25T14:03:53;3.33;;;2.77;;
13279;SDS011;6708;49.814;8.652;2023-04-25T14:06:21;1.80;;;1.70;;
13279;SDS011;6708;49.814;8.652;2023-04-25T14:08:51;3.60;;;1.83;;
13279;SDS011;6708;49.814;8.652;2023-04-25T14:11:22;2.40;;;2.20;;
13279;SDS011;6708;49.814;8.652;2023-04-25T14:13:50;3.93;;;2.10;;
13279;SDS011;6708;49.814;8.652;2023-04-25T14:16:19;2.87;;;1.80;;
13279;SDS011;6708;49.814;8.652;2023-04-25T14:18:48;2.93;;;2.27;;
13279;SDS011;6708;49.814;8.652;2023-04-25T14:21:16;5.77;;;1.83;;
13279;SDS011;6708;49.814;8.652;2023-04-25T14:23:45;2.30;;;2.10;;
13279;SDS011;6708;49.814;8.652;2023-04-25T14:26:14;3.17;;;1.87;;
13279;SDS011;6708;49.814;8.652;2023-04-25T14:28:45;3.37;;;1.90;;
13279;SDS011;6708;49.814;8.652;2023-04-25T14:31:13;6.63;;;2.20;;
13279;SDS011;6708;49.814;8.652;2023-04-25T14:33:41;2.13;;;1.93;;
13279;SDS011;6708;49.814;8.652;2023-04-25T14:36:10;16.23;;;2.33;;
13279;SDS011;6708;49.814;8.652;2023-04-25T14:38:39;2.43;;;1.67;;
13279;SDS011;6708;49.814;8.652;2023-04-25T14:41:08;1.87;;;1.60;;
13279;SDS011;6708;49.814;8.652;2023-04-25T14:43:36;5.37;;;2.03;;
13279;SDS011;6708;49.814;8.652;2023-04-25T14:46:08;4.43;;;2.03;;
13279;SDS011;6708;49.814;8.652;2023-04-25T14:48:37;2.47;;;1.90;;
13279;SDS011;6708;49.814;8.652;2023-04-25T14:51:05;2.97;;;1.77;;
13279;SDS011;6708;49.814;8.652;2023-04-25T14:53:34;2.10;;;1.90;;
13279;SDS011;6708;49.814;8.652;2023-04-25T14:56:02;2.77;;;1.63;;
13279;SDS011;6708;49.814;8.652;2023-04-25T14:58:32;5.67;;;2.50;;
13279;SDS011;6708;49.814;8.652;2023-04-25T15:01:00;5.17;;;2.20;;
13279;SDS011;6708;49.814;8.652;2023-04-25T15:03:31;4.07;;;1.60;;
13279;SDS011;6708;49.814;8.652;2023-04-25T15:06:00;2.37;;;1.80;;
13279;SDS011;6708;49.814;8.652;2023-04-25T15:08:28;3.40;;;2.00;;
13279;SDS011;6708;49.814;8.652;2023-04-25T15:10:57;5.50;;;2.00;;
13279;SDS011;6708;49.814;8.652;2023-04-25T15:13:25;1.40;;;1.30;;
13279;SDS011;6708;49.814;8.652;2023-04-25T15:15:54;6.70;;;2.00;;
13279;SDS011;6708;49.814;8.652;2023-04-25T15:18:22;1.77;;;1.67;;
13279;SDS011;6708;49.814;8.652;2023-04-25T15:20:54;4.23;;;1.80;;
13279;SDS011;6708;49.814;8.652;2023-04-25T15:23:22;4.53;;;1.60;;
13279;SDS011;6708;49.814;8.652;2023-04-25T15:25:50;6.57;;;1.30;;
13279;SDS011;6708;49.814;8.652;2023-04-25T15:28:19;2.83;;;1.73;;
13279;SDS011;6708;49.814;8.652;2023-04-25T15:30:48;3.33;;;2.27;;
13279;SDS011;6708;49.814;8.652;2023-04-25T15:33:16;5.43;;;1.73;;
13279;SDS011;6708;49.814;8.652;2023-04-25T15:35:45;11.13;;;2.30;;
13279;SDS011;6708;49.814;8.652;2023-04-25T15:38:16;3.87;;;1.73;;